Time;durP1;ratioP1;P1;durP2;ratioP2;P2;SDS_P1;SDS_P2;PMS_P1;PMS_P2;Temp;Humidity;BMP_temperature;BMP_pressure;BME280_temperature;BME280_humidity;BME280_pressure;Samples;Min_cycle;Max_cycle;Signal;HPM_P1;HPM_P2
2021/03/18 00:02:01;;;;;;;11.77;2.80;;;;;;;;;;4093452;34;20120;-86
2021/03/18 00:05:17;;;;;;;10.80;2.92;;;;;;;;;;4072930;35;20119;-85
2021/03/18 00:08:03;;;;;;;10.82;2.90;;;;;;;;;;4096187;34;20066;-84
2021/03/18 00:10:53;;;;;;;12.98;3.47;;;;;;;;;;4078073;34;20410;-84
2021/03/18 00:17:24;;;;;;;10.00;2.97;;;;;;;;;;4089868;34;20531;-84
2021/03/18 00:20:11;;;;;;;10.30;2.87;;;;;;;;;;4084175;34;20447;-86
2021/03/18 00:23:25;;;;;;;11.50;2.78;;;;;;;;;;4055543;35;20156;-85
2021/03/18 00:26:09;;;;;;;8.02;2.83;;;;;;;;;;4049436;35;20102;-84
2021/03/18 00:29:22;;;;;;;9.27;3.10;;;;;;;;;;4054538;35;20634;-86
2021/03/18 00:32:55;;;;;;;10.85;2.65;;;;;;;;;;4059823;35;20146;-86
2021/03/18 00:39:00;;;;;;;13.48;3.22;;;;;;;;;;4061634;35;20603;-85
2021/03/18 00:41:44;;;;;;;9.38;2.80;;;;;;;;;;4063638;35;20069;-85
2021/03/18 00:44:38;;;;;;;10.00;3.17;;;;;;;;;;4060747;35;20074;-87
2021/03/18 00:47:51;;;;;;;6.47;2.67;;;;;;;;;;4061708;35;20074;-84
2021/03/18 00:50:38;;;;;;;11.88;2.92;;;;;;;;;;4057997;35;20615;-83
2021/03/18 00:53:46;;;;;;;6.55;3.17;;;;;;;;;;4063263;35;20669;-83
2021/03/18 00:57:00;;;;;;;11.95;3.08;;;;;;;;;;4043766;35;20105;-84
2021/03/18 00:59:38;;;;;;;8.90;3.00;;;;;;;;;;4081036;35;20069;-85
2021/03/18 01:02:56;;;;;;;12.68;3.35;;;;;;;;;;4075143;34;20123;-85
2021/03/18 01:05:39;;;;;;;11.18;3.05;;;;;;;;;;4070894;35;20533;-85
2021/03/18 01:08:59;;;;;;;9.32;3.50;;;;;;;;;;4067928;35;20102;-85
2021/03/18 01:12:04;;;;;;;9.18;3.20;;;;;;;;;;4069170;35;20578;-84
2021/03/18 01:14:37;;;;;;;9.32;3.40;;;;;;;;;;4067079;35;20440;-84
2021/03/18 01:17:38;;;;;;;10.90;3.10;;;;;;;;;;4071020;35;20518;-84
2021/03/18 01:20:31;;;;;;;10.25;3.33;;;;;;;;;;4074659;35;20497;-85
2021/03/18 01:23:39;;;;;;;11.60;3.20;;;;;;;;;;4080028;35;20058;-84
2021/03/18 01:26:19;;;;;;;10.35;3.25;;;;;;;;;;4066840;35;20081;-86
2021/03/18 01:28:54;;;;;;;7.95;2.90;;;;;;;;;;4084810;35;20077;-84
2021/03/18 01:31:35;;;;;;;15.93;3.92;;;;;;;;;;4067192;35;20501;-85
2021/03/18 01:34:19;;;;;;;9.40;3.60;;;;;;;;;;4075272;35;20106;-84
2021/03/18 01:37:27;;;;;;;9.13;2.97;;;;;;;;;;4083396;35;20073;-85
2021/03/18 01:40:19;;;;;;;7.55;2.97;;;;;;;;;;4073220;35;20085;-86
2021/03/18 01:43:07;;;;;;;;;;;;;;;;;;;;;
2021/03/18 01:46:01;;;;;;;11.63;3.00;;;;;;;;;;4082843;35;20050;-84
2021/03/18 01:49:01;;;;;;;9.32;3.67;;;;;;;;;;4074416;35;20250;-85
2021/03/18 01:51:49;;;;;;;14.60;3.60;;;;;;;;;;4067809;35;20449;-85
2021/03/18 01:54:46;;;;;;;10.48;3.25;;;;;;;;;;4086749;35;20649;-85
2021/03/18 01:57:37;;;;;;;13.60;3.67;;;;;;;;;;4068586;35;20080;-84
2021/03/18 02:00:41;;;;;;;8.60;3.15;;;;;;;;;;4085278;35;20116;-85
2021/03/18 02:03:58;;;;;;;7.10;3.15;;;;;;;;;;4056379;35;20599;-82
2021/03/18 02:07:02;;;;;;;10.40;3.58;;;;;;;;;;4074841;35;20135;-85
2021/03/18 02:09:53;;;;;;;7.55;3.58;;;;;;;;;;4059308;35;20110;-86
2021/03/18 02:13:16;;;;;;;14.75;3.78;;;;;;;;;;4080266;35;20076;-85
2021/03/18 02:16:36;;;;;;;12.80;4.00;;;;;;;;;;4081768;35;20065;-85
2021/03/18 02:19:40;;;;;;;17.95;3.95;;;;;;;;;;4066717;35;20124;-83
2021/03/18 02:22:54;;;;;;;11.43;3.47;;;;;;;;;;4070083;35;20819;-85
2021/03/18 02:25:40;;;;;;;9.25;3.67;;;;;;;;;;4063031;35;20207;-86
2021/03/18 02:28:47;;;;;;;9.80;3.08;;;;;;;;;;4057144;35;20096;-85
2021/03/18 02:32:00;;;;;;;12.50;3.90;;;;;;;;;;4079931;35;20094;-85
2021/03/18 02:35:27;;;;;;;12.70;3.87;;;;;;;;;;4062746;35;20127;-83
2021/03/18 02:38:11;;;;;;;16.80;4.18;;;;;;;;;;4063301;35;20571;-85
2021/03/18 02:41:20;;;;;;;;;;;;;;;;;;;;;
2021/03/18 02:44:11;;;;;;;14.20;3.50;;;;;;;;;;4080325;35;20534;-86
2021/03/18 02:46:50;;;;;;;12.07;3.55;;;;;;;;;;4072958;35;20095;-84
2021/03/18 02:50:08;;;;;;;10.65;3.78;;;;;;;;;;4057376;35;20061;-84
2021/03/18 02:53:19;;;;;;;9.43;3.40;;;;;;;;;;4068505;35;20058;-84
2021/03/18 02:56:36;;;;;;;12.60;3.78;;;;;;;;;;4067166;35;20106;-86
2021/03/18 02:59:44;;;;;;;11.75;3.05;;;;;;;;;;4077581;35;20058;-85
2021/03/18 03:02:57;;;;;;;10.02;3.00;;;;;;;;;;4049427;35;20050;-84
2021/03/18 03:06:33;;;;;;;9.52;2.90;;;;;;;;;;4039860;35;20579;-84
2021/03/18 03:09:39;;;;;;;12.93;3.20;;;;;;;;;;4032374;35;20182;-84
2021/03/18 06:40:48;;;;;;;15.00;3.35;;;;;;;;;;4087392;34;20176;-86
2021/03/18 06:46:42;;;;;;;12.85;3.05;;;;;;;;;;4092411;34;20407;-84
2021/03/18 06:50:04;;;;;;;12.77;3.10;;;;;;;;;;4075794;35;20089;-85
2021/03/18 06:53:04;;;;;;;15.02;3.28;;;;;;;;;;4098738;34;20045;-85
2021/03/18 06:56:05;;;;;;;13.20;3.10;;;;;;;;;;4086767;35;20104;-85
2021/03/18 06:59:28;;;;;;;8.50;2.80;;;;;;;;;;4091015;34;20082;-84
2021/03/18 07:02:31;;;;;;;10.18;2.65;;;;;;;;;;4080705;35;20066;-85
2021/03/18 07:05:23;;;;;;;14.85;3.30;;;;;;;;;;4077079;35;20127;-85
2021/03/18 07:08:29;;;;;;;10.55;3.20;;;;;;;;;;4081976;34;20120;-85
2021/03/18 07:11:50;;;;;;;12.00;3.22;;;;;;;;;;4090460;34;20074;-86
2021/03/18 07:14:59;;;;;;;;;;;;;;;;;;;;;
2021/03/18 07:18:02;;;;;;;13.38;3.35;;;;;;;;;;4094059;34;20093;-85
2021/03/18 07:21:17;;;;;;;11.75;2.92;;;;;;;;;;4085749;34;20066;-86
2021/03/18 07:24:26;;;;;;;13.18;2.90;;;;;;;;;;4078234;35;20070;-85
2021/03/18 07:28:07;;;;;;;11.60;2.85;;;;;;;;;;4068758;34;20135;-85
2021/03/18 07:31:06;;;;;;;10.88;3.08;;;;;;;;;;4089268;34;20080;-88
2021/03/18 07:34:06;;;;;;;;;;;;;;;;;;;;;
2021/03/18 07:37:12;;;;;;;15.27;4.07;;;;;;;;;;4091961;34;20180;-84
2021/03/18 07:40:16;;;;;;;12.40;3.80;;;;;;;;;;4083259;34;20069;-84
2021/03/18 07:43:22;;;;;;;15.65;4.45;;;;;;;;;;4082175;35;20419;-84
2021/03/18 07:46:25;;;;;;;14.98;4.28;;;;;;;;;;4081872;34;20575;-84
2021/03/18 07:49:53;;;;;;;19.65;4.55;;;;;;;;;;4082670;34;20101;-85
2021/03/18 07:52:45;;;;;;;;;;;;;;;;;;;;;
2021/03/18 07:55:41;;;;;;;84.68;62.95;;;;;;;;;;4073563;35;20330;-86
2021/03/18 07:59:21;;;;;;;36.45;19.40;;;;;;;;;;4039139;35;20047;-85
2021/03/18 08:23:35;;;;;;;15.18;10.73;;;;;;;;;;4040916;35;20356;-88
2021/03/18 08:45:40;;;;;;;16.98;3.53;;;;;;;;;;4019501;35;20171;-85
2021/03/18 08:51:52;;;;;;;14.07;3.45;;;;;;;;;;4011586;35;20056;-86
2021/03/18 08:55:20;;;;;;;27.08;4.70;;;;;;;;;;3979904;35;20538;-84
2021/03/18 09:04:43;;;;;;;11.93;3.28;;;;;;;;;;4029731;35;20067;-85
2021/03/18 09:07:29;;;;;;;12.60;3.55;;;;;;;;;;4029808;35;20214;-89
2021/03/18 09:10:03;;;;;;;9.10;2.90;;;;;;;;;;4074947;35;20148;-89
2021/03/18 09:13:13;;;;;;;11.15;3.80;;;;;;;;;;4078912;35;20415;-87
2021/03/18 09:16:10;;;;;;;9.55;3.03;;;;;;;;;;4062469;35;20126;-89
2021/03/18 09:19:29;;;;;;;7.45;2.85;;;;;;;;;;4087196;34;20085;-83
2021/03/18 09:22:06;;;;;;;10.73;3.03;;;;;;;;;;4078704;35;20069;-88
2021/03/18 09:24:58;;;;;;;9.52;2.95;;;;;;;;;;4082400;35;20124;-84
2021/03/18 09:27:46;;;;;;;7.90;2.50;;;;;;;;;;4083174;35;20121;-84
2021/03/18 09:30:31;;;;;;;9.27;2.80;;;;;;;;;;4093027;34;20274;-84
2021/03/18 09:33:17;;;;;;;9.77;2.80;;;;;;;;;;4094699;35;20096;-84
2021/03/18 09:35:54;;;;;;;7.85;2.70;;;;;;;;;;4086542;35;20062;-85
2021/03/18 09:38:33;;;;;;;9.15;3.15;;;;;;;;;;4097728;34;20590;-84
2021/03/18 09:41:02;;;;;;;9.65;2.92;;;;;;;;;;4092983;34;20132;-85
2021/03/18 09:43:33;;;;;;;13.00;3.55;;;;;;;;;;4101499;35;20095;-86
2021/03/18 09:46:03;;;;;;;11.75;3.55;;;;;;;;;;4084523;34;20105;-84
2021/03/18 09:48:34;;;;;;;14.50;3.40;;;;;;;;;;4093600;34;20109;-84
2021/03/18 09:51:18;;;;;;;15.80;3.80;;;;;;;;;;4101350;34;20066;-85
2021/03/18 09:54:01;;;;;;;11.63;3.12;;;;;;;;;;4100448;35;20169;-86
2021/03/18 09:56:35;;;;;;;11.02;3.50;;;;;;;;;;4081877;35;20062;-84
2021/03/18 09:59:05;;;;;;;11.25;3.20;;;;;;;;;;4092425;34;20062;-85
2021/03/18 10:01:39;;;;;;;19.83;3.95;;;;;;;;;;4090128;34;20491;-83
2021/03/18 10:04:14;;;;;;;20.83;4.65;;;;;;;;;;4086117;35;20066;-86
2021/03/18 10:06:59;;;;;;;17.02;4.35;;;;;;;;;;4077115;35;20395;-84
2021/03/18 10:09:33;;;;;;;17.55;5.45;;;;;;;;;;4091018;34;20644;-85
2021/03/18 10:12:41;;;;;;;12.20;3.67;;;;;;;;;;4074070;35;20407;-88
2021/03/18 10:15:13;;;;;;;16.75;4.05;;;;;;;;;;4093981;35;20526;-85
2021/03/18 10:17:51;;;;;;;15.57;7.78;;;;;;;;;;4097536;35;20097;-87
2021/03/18 10:20:38;;;;;;;10.98;4.20;;;;;;;;;;4082232;35;20474;-89
2021/03/18 10:23:09;;;;;;;15.10;4.75;;;;;;;;;;4087365;34;20389;-86
2021/03/18 10:25:41;;;;;;;14.27;3.55;;;;;;;;;;4090541;35;20470;-86
2021/03/18 10:28:11;;;;;;;17.95;3.78;;;;;;;;;;4098560;34;20085;-85
2021/03/18 10:31:07;;;;;;;16.85;3.75;;;;;;;;;;4087626;34;20078;-85
2021/03/18 10:33:38;;;;;;;15.45;3.70;;;;;;;;;;4091323;35;20096;-85
2021/03/18 10:36:11;;;;;;;12.68;3.22;;;;;;;;;;4078782;35;20130;-85
2021/03/18 10:39:09;;;;;;;12.73;3.17;;;;;;;;;;4094143;34;20082;-89
2021/03/18 10:42:00;;;;;;;10.57;3.30;;;;;;;;;;4090277;34;20054;-89
2021/03/18 10:44:39;;;;;;;15.93;4.85;;;;;;;;;;4086080;35;20467;-85
2021/03/18 10:47:34;;;;;;;11.40;3.42;;;;;;;;;;4076472;35;20486;-86
2021/03/18 10:50:06;;;;;;;12.15;1.98;;;;;;;;;;4084837;35;20107;-87
2021/03/18 10:53:07;;;;;;;320.88;89.47;;;;;;;;;;4089666;34;20761;-86
2021/03/18 10:55:50;;;;;;;70.20;11.30;;;;;;;;;;4096148;35;20136;-86
2021/03/18 10:58:29;;;;;;;11.15;3.75;;;;;;;;;;4091254;34;20081;-87
2021/03/18 11:01:33;;;;;;;15.55;3.53;;;;;;;;;;4097666;34;20084;-85
2021/03/18 11:04:09;;;;;;;12.10;3.42;;;;;;;;;;4085865;35;20831;-86
2021/03/18 11:06:51;;;;;;;9.73;3.12;;;;;;;;;;4098864;35;20126;-84
2021/03/18 11:09:26;;;;;;;14.90;3.35;;;;;;;;;;4094976;34;20111;-85
2021/03/18 11:11:59;;;;;;;12.10;3.10;;;;;;;;;;4081687;35;20486;-86
2021/03/18 11:14:31;;;;;;;11.55;5.37;;;;;;;;;;4098335;35;20120;-86
2021/03/18 11:17:11;;;;;;;9.15;2.97;;;;;;;;;;4091602;35;20139;-86
2021/03/18 11:19:40;;;;;;;9.07;3.10;;;;;;;;;;4094586;34;20133;-84
2021/03/18 11:22:08;;;;;;;9.90;2.62;;;;;;;;;;4086614;34;21278;-84
2021/03/18 11:24:36;;;;;;;13.15;4.82;;;;;;;;;;4090088;34;20826;-84
2021/03/18 11:27:05;;;;;;;13.25;3.42;;;;;;;;;;4087377;35;20117;-86
2021/03/18 11:29:40;;;;;;;9.38;2.83;;;;;;;;;;4089714;34;20100;-86
2021/03/18 11:32:27;;;;;;;8.20;2.37;;;;;;;;;;4085489;35;20603;-86
2021/03/18 11:34:59;;;;;;;8.00;3.00;;;;;;;;;;4079195;35;20132;-85
2021/03/18 11:37:28;;;;;;;11.70;4.43;;;;;;;;;;4077849;35;20128;-85
2021/03/18 11:39:57;;;;;;;9.90;3.85;;;;;;;;;;4080755;35;20085;-85
2021/03/18 11:43:03;;;;;;;12.15;3.35;;;;;;;;;;4075026;35;20194;-86
2021/03/18 11:45:36;;;;;;;9.32;2.87;;;;;;;;;;4079532;35;20525;-87
2021/03/18 11:48:52;;;;;;;9.63;2.83;;;;;;;;;;4097350;34;20112;-84
2021/03/18 11:51:45;;;;;;;20.05;3.25;;;;;;;;;;4104192;34;20126;-84
2021/03/18 11:54:18;;;;;;;11.05;2.90;;;;;;;;;;4087730;35;20131;-86
2021/03/18 11:56:50;;;;;;;9.65;3.00;;;;;;;;;;4098462;35;20075;-86
2021/03/18 11:59:20;;;;;;;11.25;2.80;;;;;;;;;;4096361;34;20078;-85
2021/03/18 12:01:50;;;;;;;9.55;2.83;;;;;;;;;;4075304;35;20109;-87
2021/03/18 12:04:29;;;;;;;13.60;3.10;;;;;;;;;;4090902;35;20082;-84
2021/03/18 12:07:14;;;;;;;8.43;2.53;;;;;;;;;;4088947;35;20132;-85
2021/03/18 12:10:01;;;;;;;12.23;3.05;;;;;;;;;;4099017;34;20084;-86
2021/03/18 12:12:31;;;;;;;7.82;2.60;;;;;;;;;;4081516;35;20093;-85
2021/03/18 12:15:13;;;;;;;11.32;2.70;;;;;;;;;;4087405;35;20394;-84
2021/03/18 12:17:56;;;;;;;9.27;3.47;;;;;;;;;;4081656;34;20168;-84
2021/03/18 12:20:36;;;;;;;6.05;2.08;;;;;;;;;;4096742;35;20359;-85
2021/03/18 12:23:20;;;;;;;8.50;2.60;;;;;;;;;;4089382;34;20066;-84
2021/03/18 12:25:53;;;;;;;8.05;2.75;;;;;;;;;;4087778;35;20121;-84
2021/03/18 12:28:29;;;;;;;7.25;2.67;;;;;;;;;;4083323;35;20050;-87
2021/03/18 12:31:24;;;;;;;8.90;3.20;;;;;;;;;;4078586;35;20076;-87
2021/03/18 12:33:56;;;;;;;5.80;2.97;;;;;;;;;;4087924;34;20063;-85
2021/03/18 12:36:25;;;;;;;8.85;3.15;;;;;;;;;;4086290;35;20137;-85
2021/03/18 12:39:28;;;;;;;8.40;3.00;;;;;;;;;;4091752;34;20058;-84
2021/03/18 12:42:06;;;;;;;8.80;3.10;;;;;;;;;;4080187;35;20189;-88
2021/03/18 12:44:37;;;;;;;8.65;2.60;;;;;;;;;;4080277;35;20051;-85
2021/03/18 12:47:12;;;;;;;9.07;2.78;;;;;;;;;;4085366;35;20285;-87
2021/03/18 12:49:41;;;;;;;14.57;2.90;;;;;;;;;;4087786;34;20137;-86
2021/03/18 12:52:22;;;;;;;8.90;2.37;;;;;;;;;;4078342;35;20563;-86
2021/03/18 12:55:00;;;;;;;10.82;2.97;;;;;;;;;;4096092;34;20066;-86
2021/03/18 12:58:02;;;;;;;7.15;2.40;;;;;;;;;;4091947;35;20391;-86
2021/03/18 13:00:36;;;;;;;8.10;2.83;;;;;;;;;;4077025;35;20171;-85
2021/03/18 13:03:14;;;;;;;9.25;2.70;;;;;;;;;;4082038;35;20182;-87
2021/03/18 13:05:55;;;;;;;7.20;2.47;;;;;;;;;;4079260;35;20561;-89
2021/03/18 13:08:24;;;;;;;4.70;2.15;;;;;;;;;;4087602;34;20122;-86
2021/03/18 13:11:02;;;;;;;10.00;2.58;;;;;;;;;;4087862;34;20172;-84
2021/03/18 13:13:30;;;;;;;8.73;2.37;;;;;;;;;;4076044;35;20073;-89
2021/03/18 13:16:21;;;;;;;9.07;2.45;;;;;;;;;;4080506;35;20771;-90
2021/03/18 13:18:49;;;;;;;7.57;2.20;;;;;;;;;;4087527;34;20536;-87
2021/03/18 13:21:49;;;;;;;9.43;2.67;;;;;;;;;;4094779;34;20188;-86
2021/03/18 13:44:14;;;;;;;7.70;2.22;;;;;;;;;;3959416;36;20571;-86
2021/03/18 14:17:05;;;;;;;9.35;2.25;;;;;;;;;;4075226;34;20494;-84
2021/03/18 14:19:49;;;;;;;9.68;2.40;;;;;;;;;;4084366;35;20070;-86
2021/03/18 14:22:26;;;;;;;9.52;2.50;;;;;;;;;;4077044;34;20156;-84
2021/03/18 14:25:02;;;;;;;9.57;2.15;;;;;;;;;;4090359;35;20070;-85
2021/03/18 14:27:59;;;;;;;9.27;2.72;;;;;;;;;;4089410;35;20066;-85
2021/03/18 14:31:06;;;;;;;4.57;1.85;;;;;;;;;;4092030;35;20117;-84
2021/03/18 14:34:06;;;;;;;9.73;2.08;;;;;;;;;;4079519;35;20232;-85
2021/03/18 14:36:45;;;;;;;8.38;2.40;;;;;;;;;;4093899;35;20388;-85
2021/03/18 14:39:23;;;;;;;8.63;2.08;;;;;;;;;;4094930;34;20589;-86
2021/03/18 14:42:15;;;;;;;10.52;2.50;;;;;;;;;;4092548;34;20074;-84
2021/03/18 14:58:49;;;;;;;16.37;2.55;;;;;;;;;;4089601;34;20164;-85
2021/03/18 15:01:59;;;;;;;9.18;2.90;;;;;;;;;;4082401;35;20113;-85
2021/03/18 15:05:11;;;;;;;9.35;2.50;;;;;;;;;;4046902;35;20174;-85
2021/03/18 15:08:43;;;;;;;8.90;2.25;;;;;;;;;;4045856;35;20086;-87
2021/03/18 15:12:18;;;;;;;7.12;2.10;;;;;;;;;;4027222;35;20074;-85
2021/03/18 15:20:53;;;;;;;12.37;2.83;;;;;;;;;;4048703;35;20867;-85
2021/03/18 15:23:21;;;;;;;11.50;2.58;;;;;;;;;;4054026;35;20118;-84
2021/03/18 15:25:49;;;;;;;9.60;2.72;;;;;;;;;;4065446;35;20062;-83
2021/03/18 15:28:20;;;;;;;11.43;2.65;;;;;;;;;;4061434;35;20448;-84
2021/03/18 15:30:50;;;;;;;12.85;2.58;;;;;;;;;;4063359;35;20100;-84
2021/03/18 15:33:19;;;;;;;9.57;2.40;;;;;;;;;;4060833;35;20110;-84
2021/03/18 15:35:48;;;;;;;10.15;2.12;;;;;;;;;;4085521;34;20431;-84
2021/03/18 15:38:16;;;;;;;9.70;2.33;;;;;;;;;;4102989;34;20105;-83
2021/03/18 15:40:44;;;;;;;12.98;2.85;;;;;;;;;;4106654;34;20105;-84
2021/03/18 15:43:14;;;;;;;10.95;2.50;;;;;;;;;;4106450;35;20118;-84
2021/03/18 15:45:43;;;;;;;9.90;2.67;;;;;;;;;;4105706;34;20512;-85
2021/03/18 15:48:13;;;;;;;11.63;2.80;;;;;;;;;;4105903;34;20105;-84
2021/03/18 15:50:44;;;;;;;10.65;3.10;;;;;;;;;;4103674;34;20123;-84
2021/03/18 15:53:16;;;;;;;15.27;2.78;;;;;;;;;;4103921;34;20172;-84
2021/03/18 15:55:45;;;;;;;9.85;2.70;;;;;;;;;;4097661;34;20046;-84
2021/03/18 15:58:13;;;;;;;11.07;2.60;;;;;;;;;;4106986;34;20158;-84
2021/03/18 16:00:47;;;;;;;12.73;3.12;;;;;;;;;;4108522;34;20080;-85
2021/03/18 16:03:22;;;;;;;15.25;3.22;;;;;;;;;;4104863;34;20495;-84
2021/03/18 16:05:51;;;;;;;14.75;3.00;;;;;;;;;;4104234;34;20065;-84
2021/03/18 16:08:19;;;;;;;11.80;2.85;;;;;;;;;;4103896;34;20713;-84
2021/03/18 16:10:47;;;;;;;9.27;2.58;;;;;;;;;;4107059;34;20420;-83
2021/03/18 16:13:15;;;;;;;12.20;2.70;;;;;;;;;;4105922;34;20065;-83
2021/03/18 16:15:44;;;;;;;12.05;2.53;;;;;;;;;;4104867;34;20116;-83
2021/03/18 16:18:12;;;;;;;18.85;3.00;;;;;;;;;;4108209;34;20108;-83
2021/03/18 16:20:41;;;;;;;15.15;3.20;;;;;;;;;;4109037;34;20441;-84
2021/03/18 16:23:15;;;;;;;11.65;2.70;;;;;;;;;;4103455;34;20087;-84
2021/03/18 16:25:43;;;;;;;;;;;;;;;;;;4100473;34;20466;-84
2021/03/18 16:28:11;;;;;;;10.90;2.67;;;;;;;;;;4105197;34;20341;-83
2021/03/18 16:30:40;;;;;;;14.65;2.92;;;;;;;;;;4101293;34;20462;-84
2021/03/18 16:33:11;;;;;;;9.52;2.78;;;;;;;;;;4100634;34;20057;-84
2021/03/18 16:35:42;;;;;;;6.07;2.17;;;;;;;;;;4100712;34;20142;-83
2021/03/18 16:38:11;;;;;;;7.97;2.92;;;;;;;;;;4102538;34;20099;-84
2021/03/18 16:41:01;;;;;;;18.45;3.47;;;;;;;;;;4097217;35;20058;-83
2021/03/18 16:43:30;;;;;;;9.18;2.83;;;;;;;;;;4102530;34;20132;-83
2021/03/18 16:46:04;;;;;;;13.15;3.10;;;;;;;;;;4104989;34;20062;-84
2021/03/18 16:48:33;;;;;;;11.93;2.50;;;;;;;;;;4100503;34;20121;-83
2021/03/18 16:51:01;;;;;;;7.72;2.37;;;;;;;;;;4098148;35;20062;-83
2021/03/18 16:53:30;;;;;;;14.98;2.85;;;;;;;;;;4103012;35;20106;-84
2021/03/18 16:55:58;;;;;;;11.48;2.50;;;;;;;;;;4101912;34;20054;-83
2021/03/18 16:58:27;;;;;;;12.25;2.75;;;;;;;;;;4102792;34;20104;-84
2021/03/18 17:00:55;;;;;;;11.10;2.78;;;;;;;;;;4099612;34;21648;-84
2021/03/18 17:03:23;;;;;;;20.23;3.72;;;;;;;;;;4101374;34;20097;-84
2021/03/18 17:05:52;;;;;;;13.98;2.90;;;;;;;;;;4104447;35;20050;-83
2021/03/18 17:08:20;;;;;;;10.57;2.40;;;;;;;;;;4106408;34;20135;-84
2021/03/18 17:10:51;;;;;;;8.68;2.55;;;;;;;;;;4119017;34;20111;-84
2021/03/18 17:13:20;;;;;;;6.37;2.20;;;;;;;;;;4118651;34;20057;-84
2021/03/18 17:15:49;;;;;;;12.52;2.42;;;;;;;;;;4106313;34;20112;-83
2021/03/18 17:18:18;;;;;;;9.35;2.55;;;;;;;;;;4107005;34;20106;-83
2021/03/18 17:20:47;;;;;;;10.57;1.70;;;;;;;;;;4117674;34;20054;-84
2021/03/18 17:23:32;;;;;;;8.50;2.47;;;;;;;;;;4117314;34;20070;-84
2021/03/18 17:26:00;;;;;;;16.60;2.80;;;;;;;;;;4106505;34;20092;-84
2021/03/18 17:28:28;;;;;;;11.18;2.15;;;;;;;;;;4107912;34;20443;-84
2021/03/18 17:30:57;;;;;;;10.55;2.58;;;;;;;;;;4118857;34;20136;-84
2021/03/18 17:33:29;;;;;;;13.18;2.60;;;;;;;;;;4118567;34;20060;-84
2021/03/18 17:36:00;;;;;;;12.63;2.22;;;;;;;;;;4105676;34;20065;-83
2021/03/18 17:38:28;;;;;;;10.93;2.78;;;;;;;;;;4107363;34;20161;-83
2021/03/18 17:40:56;;;;;;;10.48;2.80;;;;;;;;;;4118458;34;20110;-84
2021/03/18 17:43:33;;;;;;;7.90;2.50;;;;;;;;;;4117821;34;20065;-83
2021/03/18 17:46:03;;;;;;;7.65;2.67;;;;;;;;;;4105894;34;20772;-84
2021/03/18 17:48:31;;;;;;;9.02;2.60;;;;;;;;;;4107736;34;20124;-84
2021/03/18 17:51:02;;;;;;;12.82;2.87;;;;;;;;;;4119451;34;20434;-84
2021/03/18 17:53:33;;;;;;;10.77;2.42;;;;;;;;;;4107495;34;20070;-84
2021/03/18 17:56:02;;;;;;;12.07;3.53;;;;;;;;;;4106020;35;20058;-84
2021/03/18 17:58:30;;;;;;;12.50;2.50;;;;;;;;;;4107558;34;20519;-84
2021/03/18 18:00:58;;;;;;;8.18;2.42;;;;;;;;;;4118715;34;20073;-84
2021/03/18 18:03:27;;;;;;;13.85;2.60;;;;;;;;;;4117431;34;20383;-84
2021/03/18 18:05:55;;;;;;;12.40;2.70;;;;;;;;;;4106174;34;20401;-84
2021/03/18 18:08:23;;;;;;;14.85;2.80;;;;;;;;;;4107306;34;20108;-84
2021/03/18 18:10:52;;;;;;;10.52;2.62;;;;;;;;;;4105444;34;20081;-84
2021/03/18 18:13:20;;;;;;;12.25;2.60;;;;;;;;;;4105777;35;20076;-83
2021/03/18 18:16:04;;;;;;;10.93;2.65;;;;;;;;;;4104144;35;20057;-84
2021/03/18 18:18:37;;;;;;;9.27;2.65;;;;;;;;;;4107949;34;20076;-84
2021/03/18 18:21:06;;;;;;;10.60;2.92;;;;;;;;;;4118420;34;20070;-84
2021/03/18 18:23:34;;;;;;;11.48;2.92;;;;;;;;;;4117164;34;20378;-84
2021/03/18 18:26:03;;;;;;;14.90;3.15;;;;;;;;;;4105358;34;20065;-84
2021/03/18 18:28:31;;;;;;;12.02;3.15;;;;;;;;;;4108440;34;20408;-84
2021/03/18 18:31:02;;;;;;;14.77;2.80;;;;;;;;;;4119096;34;20445;-84
2021/03/18 18:33:32;;;;;;;14.75;3.47;;;;;;;;;;4119027;34;20497;-84
2021/03/18 18:36:01;;;;;;;11.98;2.72;;;;;;;;;;4105586;34;20533;-84
2021/03/18 18:38:29;;;;;;;10.38;2.87;;;;;;;;;;4107526;34;20065;-83
2021/03/18 18:40:58;;;;;;;10.70;2.70;;;;;;;;;;4117527;34;20704;-83
2021/03/18 18:43:26;;;;;;;10.32;2.97;;;;;;;;;;4113715;34;20100;-83
2021/03/18 18:45:54;;;;;;;8.65;2.72;;;;;;;;;;4104461;34;20069;-84
2021/03/18 18:48:23;;;;;;;14.38;2.90;;;;;;;;;;4106273;34;20073;-84
2021/03/18 18:50:55;;;;;;;14.68;3.28;;;;;;;;;;4117213;34;20201;-82
2021/03/18 18:53:40;;;;;;;12.90;3.40;;;;;;;;;;4118657;34;20054;-84
2021/03/18 18:56:08;;;;;;;10.85;3.47;;;;;;;;;;4104766;34;20128;-83
2021/03/18 18:58:37;;;;;;;13.25;3.03;;;;;;;;;;4107506;34;20057;-84
2021/03/18 19:01:07;;;;;;;14.32;2.92;;;;;;;;;;4109195;34;20093;-84
2021/03/18 19:03:35;;;;;;;9.68;3.10;;;;;;;;;;4105139;35;20083;-84
2021/03/18 19:06:04;;;;;;;12.07;2.90;;;;;;;;;;4103587;34;20061;-84
2021/03/18 19:08:33;;;;;;;14.13;3.28;;;;;;;;;;4107351;34;20176;-84
2021/03/18 19:11:01;;;;;;;12.95;3.47;;;;;;;;;;4105196;34;20065;-84
2021/03/18 19:13:29;;;;;;;14.80;3.47;;;;;;;;;;4117188;34;20103;-84
2021/03/18 19:15:58;;;;;;;10.73;3.10;;;;;;;;;;4107496;34;20430;-84
2021/03/18 19:18:26;;;;;;;11.63;3.15;;;;;;;;;;4106362;34;20113;-83
2021/03/18 19:20:55;;;;;;;13.38;3.37;;;;;;;;;;4117012;34;20396;-82
2021/03/18 19:23:25;;;;;;;12.43;3.25;;;;;;;;;;4119614;34;20639;-83
2021/03/18 19:25:53;;;;;;;11.90;3.33;;;;;;;;;;4109191;34;20069;-83
2021/03/18 19:28:21;;;;;;;18.15;3.25;;;;;;;;;;4106162;34;20131;-84
2021/03/18 19:30:52;;;;;;;18.10;3.80;;;;;;;;;;4117348;34;20084;-83
2021/03/18 19:33:20;;;;;;;11.70;3.35;;;;;;;;;;4116915;34;20057;-83
2021/03/18 19:35:49;;;;;;;15.77;3.65;;;;;;;;;;4104406;34;20798;-84
2021/03/18 19:38:19;;;;;;;19.77;4.57;;;;;;;;;;4104570;34;20091;-84
2021/03/18 19:40:52;;;;;;;11.88;3.75;;;;;;;;;;4118217;34;20088;-84
2021/03/18 19:43:20;;;;;;;11.70;3.50;;;;;;;;;;4116575;34;20495;-83
2021/03/18 19:45:49;;;;;;;15.60;3.90;;;;;;;;;;4110784;34;20622;-84
2021/03/18 19:48:17;;;;;;;10.35;3.10;;;;;;;;;;4103154;34;20100;-84
2021/03/18 19:50:48;;;;;;;15.50;3.67;;;;;;;;;;4099243;34;20496;-84
2021/03/18 19:53:16;;;;;;;13.52;3.90;;;;;;;;;;4100120;34;20107;-84
2021/03/18 19:55:44;;;;;;;13.40;3.80;;;;;;;;;;4100185;34;20557;-85
2021/03/18 19:58:14;;;;;;;13.07;3.62;;;;;;;;;;4099751;34;20057;-83
2021/03/18 20:00:43;;;;;;;17.52;3.97;;;;;;;;;;4101890;34;20076;-84
2021/03/18 20:03:11;;;;;;;12.45;3.95;;;;;;;;;;4102875;34;20080;-83
2021/03/18 20:05:40;;;;;;;14.25;3.90;;;;;;;;;;4101781;34;20811;-83
2021/03/18 20:08:13;;;;;;;12.30;3.47;;;;;;;;;;4103308;34;20181;-84
2021/03/18 20:10:41;;;;;;;18.00;3.87;;;;;;;;;;4103012;34;20198;-83
2021/03/18 20:13:09;;;;;;;12.02;3.90;;;;;;;;;;4103808;34;20476;-83
2021/03/18 20:15:39;;;;;;;14.73;4.40;;;;;;;;;;4101957;34;20058;-84
2021/03/18 20:18:09;;;;;;;18.83;4.47;;;;;;;;;;4100825;34;20100;-83
2021/03/18 20:20:38;;;;;;;13.93;4.03;;;;;;;;;;4105784;34;20088;-83
2021/03/18 20:23:07;;;;;;;17.62;4.65;;;;;;;;;;4098220;34;20731;-84
2021/03/18 20:25:35;;;;;;;17.52;4.45;;;;;;;;;;4097121;34;20196;-83
2021/03/18 20:28:04;;;;;;;17.02;4.32;;;;;;;;;;4102165;34;20439;-84
2021/03/18 20:30:47;;;;;;;16.45;4.37;;;;;;;;;;4102548;34;20502;-84
2021/03/18 20:33:19;;;;;;;21.60;4.75;;;;;;;;;;4099157;34;20466;-84
2021/03/18 20:35:49;;;;;;;18.33;4.37;;;;;;;;;;4095183;34;20563;-83
2021/03/18 20:38:17;;;;;;;12.48;4.55;;;;;;;;;;4095960;34;20119;-83
2021/03/18 20:40:46;;;;;;;15.88;4.37;;;;;;;;;;4096527;34;20457;-84
2021/03/18 20:43:15;;;;;;;9.65;3.92;;;;;;;;;;4094380;34;20129;-83
2021/03/18 20:45:43;;;;;;;20.37;4.93;;;;;;;;;;4098687;34;20080;-83
2021/03/18 20:48:12;;;;;;;14.52;4.75;;;;;;;;;;4098560;34;20125;-84
2021/03/18 20:50:41;;;;;;;12.10;4.80;;;;;;;;;;4093975;34;20717;-83
2021/03/18 20:53:09;;;;;;;11.80;4.12;;;;;;;;;;4101565;35;20096;-84
2021/03/18 20:55:37;;;;;;;15.25;4.68;;;;;;;;;;4100256;34;20119;-83
2021/03/18 20:58:09;;;;;;;15.02;4.68;;;;;;;;;;4098772;34;20065;-84
2021/03/18 21:00:38;;;;;;;20.15;4.95;;;;;;;;;;4095285;34;20156;-83
2021/03/18 21:03:27;;;;;;;17.92;4.72;;;;;;;;;;4098270;34;20276;-84
2021/03/18 21:05:55;;;;;;;15.00;4.25;;;;;;;;;;4100857;34;20131;-83
2021/03/18 21:08:23;;;;;;;20.17;4.82;;;;;;;;;;4104916;34;20755;-83
2021/03/18 21:10:52;;;;;;;12.70;4.12;;;;;;;;;;4102262;35;20077;-83
2021/03/18 21:13:20;;;;;;;19.58;4.82;;;;;;;;;;4099412;34;20076;-83
2021/03/18 21:15:48;;;;;;;19.40;4.95;;;;;;;;;;4101123;34;20085;-84
2021/03/18 21:18:17;;;;;;;17.58;4.53;;;;;;;;;;4100932;34;20544;-83
2021/03/18 21:20:46;;;;;;;14.57;4.55;;;;;;;;;;4101397;34;20069;-83
2021/03/18 21:23:14;;;;;;;22.48;4.65;;;;;;;;;;4099821;34;20093;-83
2021/03/18 21:25:43;;;;;;;14.30;4.75;;;;;;;;;;4100678;34;20062;-83
2021/03/18 21:28:12;;;;;;;16.27;3.97;;;;;;;;;;4100425;34;20100;-83
2021/03/18 21:30:44;;;;;;;11.93;4.65;;;;;;;;;;4101079;34;20066;-83
2021/03/18 21:33:13;;;;;;;18.30;4.97;;;;;;;;;;4096424;34;20070;-83
2021/03/18 21:35:41;;;;;;;18.23;4.57;;;;;;;;;;4101109;34;20192;-83
2021/03/18 21:38:10;;;;;;;13.73;4.68;;;;;;;;;;4104068;34;20070;-84
2021/03/18 21:40:38;;;;;;;14.00;3.37;;;;;;;;;;4099955;34;20121;-83
2021/03/18 21:43:06;;;;;;;12.55;4.30;;;;;;;;;;4096635;34;20050;-83
2021/03/18 21:45:35;;;;;;;18.70;4.82;;;;;;;;;;4100495;34;20121;-83